Time;durP1;ratioP1;P1;durP2;ratioP2;P2;SDS_P1;SDS_P2;PMS_P1;PMS_P2;Temp;Humidity;BMP_temperature;BMP_pressure;BME280_temperature;BME280_humidity;BME280_pressure;Samples;Min_cycle;Max_cycle;Signal;HPM_P1;HPM_P2
2021/01/04 00:01:03;;;;;;;19.77;11.05;;;1.90;99.90;;;;;;1979037;72;21136;-75
2021/01/04 00:03:29;;;;;;;24.67;12.60;;;1.80;99.90;;;;;;1974523;73;21051;-74
2021/01/04 00:05:55;;;;;;;25.32;11.70;;;1.80;99.90;;;;;;1974498;72;21059;-74
2021/01/04 00:08:21;;;;;;;23.35;12.45;;;1.80;99.90;;;;;;1974660;73;21109;-75
2021/01/04 00:10:47;;;;;;;22.20;11.68;;;1.80;99.90;;;;;;1962255;72;21045;-75
2021/01/04 00:13:13;;;;;;;30.32;12.03;;;1.70;99.90;;;;;;1971123;72;21120;-75
2021/01/04 00:15:40;;;;;;;24.60;11.78;;;1.70;99.90;;;;;;1974514;73;21047;-74
2021/01/04 00:18:06;;;;;;;22.60;11.12;;;1.80;99.90;;;;;;1974473;72;21068;-74
2021/01/04 00:20:32;;;;;;;23.85;12.53;;;1.80;99.90;;;;;;1980456;72;21071;-74
2021/01/04 00:22:59;;;;;;;21.75;11.75;;;1.80;99.90;;;;;;1977903;72;21063;-74
2021/01/04 00:25:25;;;;;;;18.90;11.50;;;1.80;99.90;;;;;;1974563;72;21067;-74
2021/01/04 00:27:51;;;;;;;26.05;12.40;;;1.90;99.90;;;;;;1974400;73;21024;-74
2021/01/04 00:30:17;;;;;;;23.30;11.20;;;1.90;99.90;;;;;;1967028;72;21129;-75
2021/01/04 00:32:43;;;;;;;26.20;11.70;;;1.80;99.90;;;;;;1969865;72;21074;-75
2021/01/04 00:35:09;;;;;;;22.75;11.88;;;1.80;99.90;;;;;;1975825;72;21458;-74
2021/01/04 00:37:35;;;;;;;22.93;11.57;;;1.70;99.90;;;;;;1986826;72;21439;-75
2021/01/04 00:40:01;;;;;;;20.27;10.93;;;1.70;99.90;;;;;;1971772;72;21458;-75
2021/01/04 00:42:28;;;;;;;23.83;12.90;;;1.70;99.90;;;;;;1976544;72;21446;-75
2021/01/04 00:44:54;;;;;;;23.83;11.20;;;1.70;99.90;;;;;;1970376;72;21072;-75
2021/01/04 00:47:20;;;;;;;18.87;10.82;;;1.70;99.90;;;;;;1971101;72;21064;-75
2021/01/04 00:49:46;;;;;;;22.30;10.72;;;1.80;99.90;;;;;;1971759;72;21020;-75
2021/01/04 00:52:12;;;;;;;21.17;10.95;;;1.80;99.90;;;;;;1978841;72;21152;-75
2021/01/04 00:54:38;;;;;;;27.10;10.63;;;1.80;99.90;;;;;;1975100;72;21121;-74
2021/01/04 00:57:04;;;;;;;20.72;11.70;;;1.80;99.90;;;;;;1969661;72;21050;-75
2021/01/04 00:59:30;;;;;;;18.37;10.88;;;1.80;99.90;;;;;;1983014;72;21055;-75
2021/01/04 01:01:57;;;;;;;28.15;10.28;;;1.80;99.90;;;;;;1981894;72;21131;-75
2021/01/04 01:04:24;;;;;;;21.45;10.95;;;1.80;99.90;;;;;;1980534;72;21109;-75
2021/01/04 01:06:51;;;;;;;22.80;11.22;;;1.80;99.90;;;;;;1977230;72;21067;-75
2021/01/04 01:09:18;;;;;;;21.95;11.65;;;1.80;99.90;;;;;;1974566;72;21121;-75
2021/01/04 01:11:44;;;;;;;25.23;10.13;;;1.60;99.90;;;;;;1974528;72;21075;-74
2021/01/04 01:14:10;;;;;;;20.85;10.55;;;1.60;99.90;;;;;;1974613;73;21437;-74
2021/01/04 01:16:36;;;;;;;21.95;10.48;;;1.60;99.90;;;;;;1974075;72;21446;-75
2021/01/04 01:19:02;;;;;;;21.05;10.60;;;1.50;99.90;;;;;;1974503;72;21478;-74
2021/01/04 01:21:28;;;;;;;17.15;10.18;;;1.60;99.90;;;;;;1974617;73;21427;-75
2021/01/04 01:23:54;;;;;;;19.27;10.60;;;1.70;99.90;;;;;;1972491;72;21049;-75
2021/01/04 01:26:20;;;;;;;18.40;10.58;;;1.60;99.90;;;;;;1976680;72;21051;-74
2021/01/04 01:28:47;;;;;;;14.58;9.75;;;1.60;99.90;;;;;;1969798;72;21136;-74
2021/01/04 01:31:13;;;;;;;19.57;11.18;;;1.70;99.90;;;;;;1981870;72;21191;-74
2021/01/04 01:33:39;;;;;;;17.23;10.38;;;1.70;99.90;;;;;;1974608;73;21051;-74
2021/01/04 01:36:05;;;;;;;15.98;10.10;;;1.70;99.90;;;;;;1971245;72;21064;-74
2021/01/04 01:38:31;;;;;;;16.35;10.60;;;1.80;99.90;;;;;;1974554;72;21125;-74
2021/01/04 01:40:57;;;;;;;19.85;11.08;;;1.80;99.90;;;;;;1967864;72;21054;-73
2021/01/04 01:43:23;;;;;;;18.80;9.90;;;1.80;99.90;;;;;;1977094;72;21091;-73
2021/01/04 01:45:49;;;;;;;21.85;10.82;;;1.80;99.90;;;;;;1974605;72;21051;-73
2021/01/04 01:48:15;;;;;;;21.70;11.28;;;1.80;99.90;;;;;;1971474;72;21180;-73
2021/01/04 01:50:42;;;;;;;23.05;10.10;;;1.90;99.90;;;;;;1970041;72;21127;-73
2021/01/04 01:53:08;;;;;;;18.23;9.95;;;1.90;99.90;;;;;;1974519;72;21063;-75
2021/01/04 01:55:34;;;;;;;19.77;11.20;;;1.90;99.90;;;;;;1974661;72;21079;-75
2021/01/04 01:58:00;;;;;;;18.00;10.10;;;1.90;99.90;;;;;;1974721;72;21066;-73
2021/01/04 02:00:26;;;;;;;26.82;11.95;;;1.90;99.90;;;;;;1983281;72;21446;-74
2021/01/04 02:02:52;;;;;;;19.65;10.35;;;1.90;99.90;;;;;;1967551;72;21418;-74
2021/01/04 02:05:18;;;;;;;24.75;10.95;;;1.80;99.90;;;;;;1964043;72;21724;-74
2021/01/04 02:07:44;;;;;;;26.12;10.82;;;1.90;99.90;;;;;;1991784;72;21494;-74
2021/01/04 02:10:11;;;;;;;22.00;10.63;;;1.90;99.90;;;;;;1979382;72;21060;-74
2021/01/04 02:12:37;;;;;;;24.77;11.70;;;1.80;99.90;;;;;;1974121;72;21063;-74
2021/01/04 02:15:03;;;;;;;25.50;11.53;;;1.80;99.90;;;;;;1974459;72;21047;-74
2021/01/04 02:17:30;;;;;;;18.60;10.03;;;1.80;99.90;;;;;;1971690;72;21060;-75
2021/01/04 02:19:56;;;;;;;28.02;11.65;;;1.80;99.90;;;;;;1979839;72;21075;-74
2021/01/04 02:22:22;;;;;;;22.07;11.22;;;1.80;99.90;;;;;;1974595;72;21133;-74
2021/01/04 02:24:48;;;;;;;19.02;10.85;;;1.80;99.90;;;;;;1967591;72;21554;-74
2021/01/04 02:27:14;;;;;;;19.00;11.33;;;1.80;99.90;;;;;;1974609;73;21532;-74
2021/01/04 02:29:40;;;;;;;22.58;11.03;;;1.60;99.90;;;;;;1973642;72;21540;-74
2021/01/04 02:32:06;;;;;;;23.10;11.20;;;1.60;99.90;;;;;;1961260;72;21540;-74
2021/01/04 02:34:32;;;;;;;24.63;11.48;;;1.70;99.90;;;;;;1976416;72;21059;-73
2021/01/04 02:36:59;;;;;;;20.92;11.10;;;1.70;99.90;;;;;;1974464;72;21028;-74
2021/01/04 02:39:25;;;;;;;22.73;11.20;;;1.80;99.90;;;;;;1974349;72;21040;-74
2021/01/04 02:41:51;;;;;;;23.83;11.43;;;1.80;99.90;;;;;;1972764;72;21058;-73
2021/01/04 02:44:17;;;;;;;24.32;10.88;;;1.90;99.90;;;;;;1979428;72;21125;-73
2021/01/04 02:46:43;;;;;;;22.82;11.73;;;1.80;99.90;;;;;;1971088;72;21101;-72
2021/01/04 02:49:10;;;;;;;36.35;11.78;;;1.80;99.90;;;;;;1979441;72;21028;-74
2021/01/04 02:51:36;;;;;;;25.02;11.18;;;1.80;99.90;;;;;;1975987;72;21047;-73
2021/01/04 02:54:02;;;;;;;19.10;10.80;;;1.80;99.90;;;;;;1984071;72;21459;-73
2021/01/04 02:56:28;;;;;;;19.23;11.03;;;1.80;99.90;;;;;;1986601;72;21483;-73
2021/01/04 02:58:54;;;;;;;22.07;10.88;;;1.90;99.90;;;;;;1963438;72;21462;-73
2021/01/04 03:01:20;;;;;;;21.30;11.48;;;1.90;99.90;;;;;;1974698;73;21440;-73
2021/01/04 03:03:46;;;;;;;21.20;10.95;;;1.90;99.90;;;;;;1967089;72;21068;-73
2021/01/04 03:06:12;;;;;;;26.90;11.12;;;1.90;99.90;;;;;;1971015;72;21055;-73
2021/01/04 03:08:39;;;;;;;20.37;11.35;;;1.90;99.90;;;;;;1982863;72;21050;-73
2021/01/04 03:11:05;;;;;;;21.12;10.98;;;1.90;99.90;;;;;;1976164;72;21133;-73
2021/01/04 03:13:31;;;;;;;18.02;10.05;;;1.90;99.90;;;;;;1972392;72;21105;-73
2021/01/04 03:15:57;;;;;;;22.90;11.18;;;1.90;99.90;;;;;;1976404;72;21079;-73
2021/01/04 03:18:23;;;;;;;18.65;11.10;;;1.90;99.90;;;;;;1982882;72;21059;-73
2021/01/04 03:20:49;;;;;;;21.57;11.33;;;1.90;99.90;;;;;;1971217;72;21062;-73
2021/01/04 03:23:15;;;;;;;31.62;12.82;;;1.90;99.90;;;;;;1978290;72;21137;-73
2021/01/04 03:25:41;;;;;;;23.65;10.95;;;1.90;99.90;;;;;;1965357;72;21475;-73
2021/01/04 03:28:08;;;;;;;21.60;11.18;;;1.90;99.90;;;;;;1974381;72;21548;-74
2021/01/04 03:30:34;;;;;;;22.70;11.35;;;1.80;99.90;;;;;;1971225;72;21614;-73
2021/01/04 03:33:00;;;;;;;23.25;12.18;;;1.70;99.90;;;;;;1980347;72;21556;-74
2021/01/04 03:35:26;;;;;;;22.10;11.45;;;1.70;99.90;;;;;;1985154;72;21450;-73
2021/01/04 03:37:52;;;;;;;22.32;11.05;;;1.80;99.90;;;;;;1978639;72;21118;-74
2021/01/04 03:40:18;;;;;;;20.95;11.63;;;1.70;99.90;;;;;;1976232;72;21059;-74
2021/01/04 03:42:44;;;;;;;19.73;11.15;;;1.80;99.90;;;;;;1977815;72;21060;-72
2021/01/04 03:45:10;;;;;;;24.77;11.73;;;1.80;99.90;;;;;;1976791;72;21055;-74
2021/01/04 03:47:36;;;;;;;21.93;11.30;;;1.80;99.90;;;;;;1965191;72;21064;-73
2021/01/04 03:50:03;;;;;;;27.45;11.20;;;1.80;99.90;;;;;;1973210;72;21028;-73
2021/01/04 03:52:29;;;;;;;19.60;11.15;;;1.80;99.90;;;;;;1966894;72;21123;-73
2021/01/04 03:54:55;;;;;;;19.48;10.53;;;1.80;99.90;;;;;;1976887;72;21067;-73
2021/01/04 03:57:21;;;;;;;21.73;11.53;;;1.80;99.90;;;;;;1977217;72;21146;-72
2021/01/04 03:59:47;;;;;;;23.30;11.25;;;1.80;99.90;;;;;;1974378;72;21060;-72
2021/01/04 04:02:13;;;;;;;23.35;11.28;;;1.80;99.90;;;;;;1974445;72;21101;-74
2021/01/04 04:04:39;;;;;;;27.05;12.18;;;1.80;99.90;;;;;;1977134;72;21129;-73
2021/01/04 04:07:05;;;;;;;19.77;10.88;;;1.80;99.90;;;;;;1966029;72;21067;-74
2021/01/04 04:09:32;;;;;;;20.57;10.50;;;1.80;99.90;;;;;;1965303;72;21063;-73
2021/01/04 04:11:58;;;;;;;20.32;10.63;;;1.90;99.90;;;;;;1967457;72;21022;-73
2021/01/04 04:14:24;;;;;;;19.05;10.35;;;1.80;99.90;;;;;;1981156;72;21498;-73
2021/01/04 04:16:50;;;;;;;20.65;10.00;;;1.80;99.90;;;;;;1982524;72;21548;-74
2021/01/04 04:19:16;;;;;;;17.20;10.82;;;1.80;99.90;;;;;;1978470;72;21478;-73
2021/01/04 04:21:42;;;;;;;35.33;11.53;;;1.70;99.90;;;;;;1972991;72;21064;-74
2021/01/04 04:24:08;;;;;;;21.05;11.57;;;1.80;99.90;;;;;;1970500;72;21032;-72
2021/01/04 04:26:34;;;;;;;21.23;10.93;;;1.80;99.90;;;;;;1973920;72;21063;-73
2021/01/04 04:29:01;;;;;;;21.50;11.38;;;1.80;99.90;;;;;;1973849;72;21120;-75
2021/01/04 04:31:27;;;;;;;25.45;11.28;;;1.80;99.90;;;;;;1970137;72;21141;-75
2021/01/04 04:33:53;;;;;;;24.67;11.05;;;1.70;99.90;;;;;;1974293;72;21056;-75
2021/01/04 04:36:19;;;;;;;28.57;10.93;;;1.70;99.90;;;;;;1973627;72;21067;-73
2021/01/04 04:38:45;;;;;;;18.05;10.75;;;1.70;99.90;;;;;;1969586;72;21071;-72
2021/01/04 04:41:11;;;;;;;27.42;12.20;;;1.80;99.90;;;;;;1981426;72;21151;-72
2021/01/04 04:43:37;;;;;;;23.52;10.90;;;1.80;99.90;;;;;;1967354;72;21112;-73
2021/01/04 04:46:03;;;;;;;18.52;11.22;;;1.90;99.90;;;;;;1977061;72;21090;-74
2021/01/04 04:48:31;;;;;;;20.80;10.13;;;1.90;99.90;;;;;;1975244;72;21059;-74
2021/01/04 04:50:57;;;;;;;21.27;9.88;;;1.80;99.90;;;;;;1973852;73;21149;-73
2021/01/04 04:53:23;;;;;;;26.55;11.15;;;1.80;99.90;;;;;;1973910;72;21110;-74
2021/01/04 04:55:50;;;;;;;20.90;10.45;;;1.90;99.90;;;;;;1970215;72;21063;-75
2021/01/04 04:58:16;;;;;;;18.98;10.75;;;1.90;99.90;;;;;;1966990;72;21117;-75
2021/01/04 05:00:42;;;;;;;20.25;11.35;;;1.80;99.90;;;;;;1973933;72;21117;-74
2021/01/04 05:03:08;;;;;;;19.00;10.65;;;1.80;99.90;;;;;;1974058;73;21051;-74
2021/01/04 05:05:34;;;;;;;21.05;11.08;;;1.90;99.90;;;;;;1973995;73;21116;-75
2021/01/04 05:08:00;;;;;;;21.52;10.98;;;1.90;99.90;;;;;;1974187;73;21146;-75
2021/01/04 05:10:26;;;;;;;21.15;11.95;;;1.90;99.90;;;;;;1973932;73;21051;-74
2021/01/04 05:12:52;;;;;;;18.65;10.53;;;1.90;99.90;;;;;;1969936;72;21035;-73
2021/01/04 05:15:19;;;;;;;18.95;10.78;;;1.80;99.90;;;;;;1974011;73;21117;-74
2021/01/04 05:17:45;;;;;;;24.07;10.32;;;1.80;99.90;;;;;;1963578;72;21234;-74
2021/01/04 05:20:11;;;;;;;21.07;10.38;;;1.90;99.90;;;;;;1979417;72;21055;-74
2021/01/04 05:22:37;;;;;;;19.30;10.45;;;1.80;99.90;;;;;;1974062;73;21047;-75
2021/01/04 05:25:03;;;;;;;20.40;10.85;;;1.80;99.90;;;;;;1974074;72;21131;-74
2021/01/04 05:27:32;;;;;;;20.08;11.50;;;1.80;99.90;;;;;;1971829;72;21059;-73
2021/01/04 05:29:58;;;;;;;25.37;11.97;;;1.90;99.90;;;;;;1974447;72;21122;-73
2021/01/04 05:32:24;;;;;;;28.95;11.65;;;1.90;99.90;;;;;;1974169;73;21119;-74
2021/01/04 05:34:50;;;;;;;25.25;11.88;;;1.90;99.90;;;;;;1973908;73;21149;-73
2021/01/04 05:37:16;;;;;;;24.18;11.68;;;1.90;99.90;;;;;;1975430;72;21083;-73
2021/01/04 05:39:42;;;;;;;23.47;11.30;;;1.80;99.90;;;;;;1975493;72;21060;-73
2021/01/04 05:42:08;;;;;;;22.42;10.90;;;1.90;99.90;;;;;;1972693;72;21492;-73
2021/01/04 05:44:34;;;;;;;20.00;10.15;;;1.80;99.90;;;;;;1971325;72;21531;-73
2021/01/04 05:47:01;;;;;;;25.32;11.73;;;1.80;99.90;;;;;;1968344;72;21483;-74
2021/01/04 05:49:27;;;;;;;25.55;11.00;;;1.90;99.90;;;;;;1970216;72;21547;-73
2021/01/04 05:51:53;;;;;;;21.77;11.12;;;1.80;99.90;;;;;;1974485;72;21128;-73
2021/01/04 05:54:19;;;;;;;20.55;11.25;;;1.80;99.90;;;;;;1977832;72;21054;-73
2021/01/04 05:56:45;;;;;;;19.25;11.20;;;1.80;99.90;;;;;;1963019;72;21054;-73
2021/01/04 05:59:11;;;;;;;21.82;11.55;;;1.80;99.90;;;;;;1976382;72;21024;-73
2021/01/04 06:01:37;;;;;;;20.68;11.43;;;1.80;99.90;;;;;;1973991;73;21109;-73
2021/01/04 06:04:03;;;;;;;24.85;10.88;;;1.80;99.90;;;;;;1972167;72;21051;-73
2021/01/04 06:06:30;;;;;;;18.00;10.38;;;1.80;99.90;;;;;;1962399;72;21046;-75
2021/01/04 06:08:56;;;;;;;20.95;11.35;;;1.90;99.90;;;;;;1972557;72;21062;-73
2021/01/04 06:11:22;;;;;;;17.52;10.55;;;1.80;99.90;;;;;;1974314;72;21542;-73
2021/01/04 06:13:53;;;;;;;21.87;10.58;;;1.80;99.90;;;;;;1974430;72;21415;-73
2021/01/04 06:16:16;;;;;;;21.05;10.88;;;1.90;99.90;;;;;;1975361;72;21189;-74
2021/01/04 06:18:42;;;;;;;19.02;9.63;;;1.90;99.90;;;;;;1973922;72;21128;-74
2021/01/04 06:21:08;;;;;;;17.52;10.08;;;1.80;99.90;;;;;;1975217;72;21071;-74
2021/01/04 06:23:34;;;;;;;21.30;11.88;;;1.90;99.90;;;;;;1982610;72;21110;-75
2021/01/04 06:26:00;;;;;;;17.60;10.58;;;1.90;99.90;;;;;;1986591;72;21055;-74
2021/01/04 06:28:27;;;;;;;22.52;11.65;;;1.90;99.90;;;;;;1977487;72;21478;-74
2021/01/04 06:30:53;;;;;;;19.52;10.98;;;1.90;99.90;;;;;;1946011;72;21438;-75
2021/01/04 06:33:19;;;;;;;25.48;11.25;;;1.90;99.90;;;;;;1971977;72;21607;-75
2021/01/04 06:35:46;;;;;;;17.27;10.50;;;1.80;99.90;;;;;;1984515;72;21136;-75
2021/01/04 06:38:12;;;;;;;28.77;11.40;;;1.80;99.90;;;;;;1970849;72;21061;-75
2021/01/04 06:40:38;;;;;;;20.12;10.95;;;1.80;99.90;;;;;;1979807;72;21058;-75
2021/01/04 06:43:04;;;;;;;23.87;11.28;;;1.80;99.90;;;;;;1977426;72;21176;-75
2021/01/04 06:45:30;;;;;;;21.02;11.75;;;1.80;99.90;;;;;;1976518;72;21137;-75
2021/01/04 06:47:57;;;;;;;22.87;12.13;;;1.90;99.90;;;;;;1973920;72;21099;-76
2021/01/04 06:50:23;;;;;;;21.48;10.65;;;1.90;99.90;;;;;;1973950;73;21055;-75
2021/01/04 06:52:49;;;;;;;18.45;10.72;;;1.80;99.90;;;;;;1967729;72;21032;-76
2021/01/04 06:55:15;;;;;;;25.97;11.53;;;1.80;99.90;;;;;;1971376;72;21055;-75
2021/01/04 06:57:42;;;;;;;21.17;11.43;;;1.80;99.90;;;;;;1974742;72;21147;-75
2021/01/04 07:00:08;;;;;;;20.62;10.90;;;1.80;99.90;;;;;;1966889;72;21186;-76
2021/01/04 07:02:35;;;;;;;20.75;11.20;;;1.80;99.90;;;;;;1969549;72;21155;-75
2021/01/04 07:05:01;;;;;;;16.42;10.53;;;1.90;99.90;;;;;;1986986;72;21132;-75
2021/01/04 07:07:27;;;;;;;24.63;11.53;;;1.90;99.90;;;;;;1976727;72;21067;-74
2021/01/04 07:09:53;;;;;;;20.95;11.75;;;1.80;99.90;;;;;;1978232;72;21066;-75
2021/01/04 07:12:19;;;;;;;23.38;12.18;;;1.80;99.90;;;;;;1978835;72;21040;-75
2021/01/04 07:14:46;;;;;;;20.80;11.47;;;1.80;99.90;;;;;;1973939;72;21125;-75
2021/01/04 07:17:12;;;;;;;27.73;11.90;;;1.80;99.90;;;;;;1974025;73;21035;-75
2021/01/04 07:19:38;;;;;;;24.20;11.83;;;1.90;99.90;;;;;;1978446;72;21063;-79
2021/01/04 07:22:04;;;;;;;27.30;12.75;;;1.90;99.90;;;;;;1967400;72;21120;-72
2021/01/04 07:24:30;;;;;;;20.75;11.18;;;1.90;99.90;;;;;;1967159;72;21095;-75
2021/01/04 07:26:56;;;;;;;22.25;11.20;;;1.90;99.90;;;;;;1962816;72;21054;-72
2021/01/04 07:29:22;;;;;;;20.80;11.33;;;2.00;99.90;;;;;;1969807;72;21051;-73
2021/01/04 07:31:48;;;;;;;21.30;10.15;;;2.00;99.90;;;;;;1973817;73;21124;-72
2021/01/04 07:34:15;;;;;;;23.60;11.30;;;2.00;99.90;;;;;;1974689;72;21135;-73
2021/01/04 07:36:41;;;;;;;21.93;10.88;;;2.00;99.90;;;;;;1978335;72;21066;-74
2021/01/04 07:39:07;;;;;;;20.62;11.10;;;2.00;99.90;;;;;;1978503;72;21058;-73
2021/01/04 07:41:33;;;;;;;19.23;10.72;;;2.00;99.90;;;;;;1976111;72;21531;-74
2021/01/04 07:43:59;;;;;;;24.50;12.63;;;2.00;99.90;;;;;;1971282;72;21426;-74
2021/01/04 07:46:25;;;;;;;19.27;10.78;;;2.00;99.90;;;;;;1985697;72;21472;-74
2021/01/04 07:48:51;;;;;;;20.68;10.40;;;2.00;99.90;;;;;;1981078;72;21455;-76
2021/01/04 07:51:17;;;;;;;24.32;10.08;;;1.90;99.90;;;;;;1976372;72;21059;-76
2021/01/04 07:53:44;;;;;;;21.97;10.68;;;1.90;99.90;;;;;;1966587;72;21059;-76
2021/01/04 07:56:10;;;;;;;27.37;11.57;;;1.90;99.90;;;;;;1970355;72;21144;-76
2021/01/04 07:58:36;;;;;;;27.67;11.85;;;2.00;99.90;;;;;;1970630;72;21111;-73
2021/01/04 08:01:02;;;;;;;30.85;12.25;;;2.00;99.90;;;;;;1970142;72;21129;-76
2021/01/04 08:03:28;;;;;;;27.42;12.03;;;2.00;99.90;;;;;;1974034;73;21117;-76
2021/01/04 08:05:54;;;;;;;26.12;11.68;;;2.10;99.90;;;;;;1977129;72;21058;-76
2021/01/04 08:08:20;;;;;;;21.17;11.38;;;2.10;99.90;;;;;;1976595;72;21036;-73
2021/01/04 08:10:49;;;;;;;18.82;10.15;;;2.00;99.90;;;;;;1968178;72;21050;-74
2021/01/04 08:13:14;;;;;;;20.50;10.18;;;2.10;99.90;;;;;;1990902;72;21068;-75
2021/01/04 08:15:40;;;;;;;16.15;10.30;;;2.20;99.90;;;;;;1981524;72;21023;-76
2021/01/04 08:18:06;;;;;;;19.60;10.72;;;2.10;99.90;;;;;;1974115;72;21080;-76
2021/01/04 08:20:33;;;;;;;20.23;10.93;;;2.10;99.90;;;;;;1970369;72;21084;-76
2021/01/04 08:22:59;;;;;;;17.62;10.85;;;2.10;99.90;;;;;;1965545;72;21117;-76
2021/01/04 08:25:25;;;;;;;21.85;11.80;;;2.20;99.90;;;;;;1969080;72;21110;-76
2021/01/04 08:27:51;;;;;;;19.85;11.40;;;2.20;99.90;;;;;;1982153;72;21098;-74
2021/01/04 08:30:17;;;;;;;23.07;12.18;;;2.30;99.90;;;;;;1986217;72;21443;-74
2021/01/04 08:32:43;;;;;;;22.07;10.90;;;2.40;99.90;;;;;;1970699;72;21444;-76
2021/01/04 08:35:09;;;;;;;21.77;10.72;;;2.40;99.90;;;;;;1975496;72;21461;-76
2021/01/04 08:37:35;;;;;;;15.85;10.03;;;2.40;99.90;;;;;;1970315;72;21059;-74
2021/01/04 08:40:02;;;;;;;18.40;10.23;;;2.50;99.90;;;;;;1970969;72;21173;-76
2021/01/04 08:42:28;;;;;;;18.60;11.18;;;2.50;99.90;;;;;;1973572;72;21066;-74
2021/01/04 08:44:54;;;;;;;20.08;11.33;;;2.50;99.90;;;;;;1959683;72;21040;-74
2021/01/04 08:47:20;;;;;;;21.15;11.15;;;2.40;99.90;;;;;;1966179;72;21047;-75
2021/01/04 08:49:46;;;;;;;21.68;10.95;;;2.50;99.90;;;;;;1968245;72;21050;-79
2021/01/04 08:52:12;;;;;;;19.12;10.85;;;2.50;99.90;;;;;;1974143;72;21117;-75
2021/01/04 08:54:38;;;;;;;19.67;10.43;;;2.60;99.90;;;;;;1971112;72;21094;-76
2021/01/04 08:57:04;;;;;;;20.32;10.72;;;2.60;99.90;;;;;;1971934;72;21034;-76
2021/01/04 08:59:35;;;;;;;18.32;10.40;;;2.60;99.90;;;;;;1978784;72;21052;-76
2021/01/04 09:02:01;;;;;;;18.07;9.58;;;2.60;99.90;;;;;;1977266;72;21112;-76
2021/01/04 09:04:27;;;;;;;17.80;10.35;;;2.50;99.90;;;;;;1970720;72;21198;-76
2021/01/04 09:06:53;;;;;;;16.67;9.80;;;2.50;99.90;;;;;;1974012;72;21071;-75
2021/01/04 09:09:19;;;;;;;18.37;9.78;;;2.60;99.90;;;;;;1972165;72;21055;-74
2021/01/04 09:11:46;;;;;;;20.50;10.95;;;2.70;99.90;;;;;;1981375;72;21147;-76
2021/01/04 09:14:12;;;;;;;16.75;10.10;;;2.70;99.90;;;;;;1977349;72;21063;-76
2021/01/04 09:16:38;;;;;;;23.25;10.40;;;2.80;99.90;;;;;;1969473;72;21411;-76
2021/01/04 09:19:04;;;;;;;25.02;11.28;;;2.80;99.90;;;;;;1971210;72;21556;-75
2021/01/04 09:21:31;;;;;;;19.27;10.65;;;2.80;99.90;;;;;;1977277;72;21493;-75
2021/01/04 09:23:57;;;;;;;23.32;10.82;;;2.80;99.90;;;;;;1979565;72;21129;-73
2021/01/04 09:26:24;;;;;;;19.40;11.15;;;2.70;99.90;;;;;;1966710;72;21055;-76
2021/01/04 09:28:50;;;;;;;23.40;10.35;;;2.70;99.90;;;;;;1974113;72;21067;-74
2021/01/04 09:31:16;;;;;;;18.10;10.10;;;2.60;99.90;;;;;;1972827;72;21028;-76
2021/01/04 09:33:42;;;;;;;21.93;10.23;;;2.50;99.90;;;;;;1974041;72;21170;-76
2021/01/04 09:36:09;;;;;;;18.57;9.70;;;2.50;99.90;;;;;;1966737;72;21060;-76
2021/01/04 09:38:35;;;;;;;16.40;8.90;;;2.70;99.90;;;;;;1967828;72;21457;-76
2021/01/04 09:41:01;;;;;;;20.90;8.93;;;2.80;99.90;;;;;;1975883;72;21121;-76
2021/01/04 09:43:27;;;;;;;19.92;9.35;;;2.80;99.90;;;;;;1974130;73;21036;-76
2021/01/04 09:45:53;;;;;;;17.95;10.88;;;2.90;99.90;;;;;;1974107;73;21067;-76
2021/01/04 09:48:19;;;;;;;18.25;10.68;;;2.80;99.90;;;;;;1974175;73;21053;-76
2021/01/04 09:50:45;;;;;;;28.17;9.98;;;2.70;99.90;;;;;;1974202;73;21164;-73
2021/01/04 09:53:11;;;;;;;18.60;9.03;;;2.70;99.90;;;;;;1973845;72;21071;-76
2021/01/04 09:55:38;;;;;;;16.62;9.38;;;2.80;99.90;;;;;;1968459;72;21033;-76
2021/01/04 09:58:04;;;;;;;18.77;9.43;;;2.80;99.90;;;;;;1967538;72;21067;-76
2021/01/04 10:00:30;;;;;;;19.65;9.93;;;2.90;99.90;;;;;;1971909;72;21652;-76
2021/01/04 10:02:56;;;;;;;17.30;9.60;;;2.90;99.90;;;;;;1967820;72;21426;-76
2021/01/04 10:05:26;;;;;;;16.93;9.25;;;3.10;99.90;;;;;;1969066;72;21487;-75
2021/01/04 10:07:50;;;;;;;18.98;10.18;;;3.00;99.90;;;;;;1971068;72;21219;-75
2021/01/04 10:10:16;;;;;;;20.20;9.58;;;3.20;99.90;;;;;;1974882;72;21027;-74
2021/01/04 10:12:42;;;;;;;20.65;9.28;;;3.10;99.90;;;;;;1975234;72;21120;-73
2021/01/04 10:15:08;;;;;;;16.87;9.10;;;2.80;99.90;;;;;;1974039;72;21500;-74
2021/01/04 10:17:34;;;;;;;18.20;9.33;;;2.70;99.90;;;;;;1974026;72;21447;-75
2021/01/04 10:20:00;;;;;;;19.48;9.28;;;2.70;99.90;;;;;;1970594;72;21515;-76
2021/01/04 10:22:27;;;;;;;19.87;8.45;;;2.70;99.90;;;;;;1967461;72;21027;-75
2021/01/04 10:24:53;;;;;;;13.03;8.03;;;2.90;99.90;;;;;;1983684;72;21129;-77
2021/01/04 10:27:19;;;;;;;16.20;7.83;;;3.00;99.90;;;;;;1976528;72;21143;-76
2021/01/04 10:29:46;;;;;;;14.43;7.85;;;3.10;99.90;;;;;;1976414;72;21237;-77
2021/01/04 10:32:12;;;;;;;18.25;7.45;;;3.00;99.90;;;;;;1974021;73;21128;-77
2021/01/04 10:34:38;;;;;;;17.80;8.13;;;3.00;99.90;;;;;;1972261;72;21523;-77
2021/01/04 10:37:05;;;;;;;10.75;6.15;;;2.90;99.90;;;;;;1976205;72;21507;-78
2021/01/04 10:39:31;;;;;;;11.43;7.28;;;3.00;99.90;;;;;;1978911;72;21094;-77
2021/01/04 10:41:57;;;;;;;12.18;6.55;;;3.00;99.90;;;;;;1974731;72;21065;-78
2021/01/04 10:44:24;;;;;;;10.82;6.60;;;3.00;99.90;;;;;;1967067;72;21067;-77
2021/01/04 10:46:50;;;;;;;10.78;6.92;;;3.00;99.90;;;;;;1970413;72;21435;-78
2021/01/04 10:49:16;;;;;;;9.63;6.17;;;3.00;99.90;;;;;;1977079;72;21098;-77
2021/01/04 10:51:42;;;;;;;12.03;6.10;;;3.10;99.90;;;;;;1974635;73;21051;-77
2021/01/04 10:54:08;;;;;;;9.40;5.67;;;3.00;99.90;;;;;;1974402;73;21129;-77
2021/01/04 10:56:34;;;;;;;13.95;6.08;;;3.10;99.90;;;;;;1972659;72;21050;-78
2021/01/04 10:59:00;;;;;;;7.28;4.95;;;3.10;99.90;;;;;;1969194;72;21121;-77
2021/01/04 11:01:26;;;;;;;5.03;3.98;;;3.00;99.90;;;;;;1978964;72;21075;-79
2021/01/04 11:03:52;;;;;;;7.50;4.25;;;2.90;99.90;;;;;;1982223;72;21127;-79
2021/01/04 11:06:19;;;;;;;7.22;4.70;;;2.90;99.90;;;;;;1976510;72;21129;-78
2021/01/04 11:08:45;;;;;;;8.00;4.67;;;3.00;99.90;;;;;;1971005;72;21090;-77
2021/01/04 11:11:11;;;;;;;11.57;5.55;;;3.10;99.90;;;;;;1974428;73;21059;-78
2021/01/04 11:13:37;;;;;;;8.70;5.05;;;3.10;99.90;;;;;;1975367;72;21057;-79
2021/01/04 11:16:03;;;;;;;5.90;4.10;;;3.20;99.90;;;;;;1975453;72;21510;-77
2021/01/04 11:18:29;;;;;;;9.45;4.62;;;3.20;99.90;;;;;;1972267;72;21435;-78
2021/01/04 11:20:56;;;;;;;8.13;4.83;;;3.20;99.90;;;;;;1972630;72;21471;-77
2021/01/04 11:23:22;;;;;;;8.28;4.40;;;3.00;99.90;;;;;;1973372;72;21055;-77
2021/01/04 11:25:48;;;;;;;6.37;4.35;;;3.00;99.90;;;;;;1978087;72;21059;-76
2021/01/04 11:28:14;;;;;;;9.18;4.72;;;3.00;99.90;;;;;;1974639;73;21462;-76
2021/01/04 11:30:40;;;;;;;8.30;4.75;;;3.00;99.90;;;;;;1974625;72;21524;-76
2021/01/04 11:33:06;;;;;;;4.42;3.65;;;3.00;99.90;;;;;;1962940;72;21046;-77
2021/01/04 11:35:33;;;;;;;13.22;4.30;;;2.90;99.90;;;;;;1967742;72;21067;-76
2021/01/04 11:37:59;;;;;;;9.20;4.55;;;3.00;99.90;;;;;;1968466;72;21119;-75
2021/01/04 11:40:25;;;;;;;10.03;4.58;;;3.00;99.90;;;;;;1983076;72;21043;-76
2021/01/04 11:42:51;;;;;;;7.53;4.42;;;3.00;99.90;;;;;;1966054;72;21019;-77
2021/01/04 11:45:17;;;;;;;8.80;4.95;;;3.00;99.90;;;;;;1972317;72;21113;-75
2021/01/04 11:47:44;;;;;;;14.93;5.22;;;3.10;99.90;;;;;;1971233;72;21056;-77
2021/01/04 11:50:12;;;;;;;7.03;4.20;;;3.10;99.90;;;;;;1971224;72;21502;-79
2021/01/04 11:52:39;;;;;;;7.22;4.35;;;2.90;99.90;;;;;;1972426;72;21128;-76
2021/01/04 11:55:05;;;;;;;9.18;4.92;;;2.90;99.90;;;;;;1969956;72;21128;-77
2021/01/04 11:57:31;;;;;;;8.85;4.45;;;2.90;99.90;;;;;;1974515;73;21052;-74
2021/01/04 11:59:57;;;;;;;11.30;5.30;;;3.10;99.90;;;;;;1971097;72;21066;-75
2021/01/04 12:02:23;;;;;;;6.20;4.22;;;3.10;99.90;;;;;;1984096;72;21131;-74
2021/01/04 12:04:49;;;;;;;11.20;5.50;;;3.10;99.90;;;;;;1971203;72;21063;-74
2021/01/04 12:07:15;;;;;;;8.13;4.97;;;3.00;99.90;;;;;;1974542;73;21463;-73
2021/01/04 12:09:42;;;;;;;7.33;4.58;;;3.00;99.90;;;;;;1970082;72;21532;-72
2021/01/04 12:12:08;;;;;;;6.53;4.45;;;3.10;99.90;;;;;;1979427;72;21406;-74
2021/01/04 12:14:34;;;;;;;31.35;7.17;;;3.00;99.90;;;;;;1978882;72;21051;-74
2021/01/04 12:17:00;;;;;;;9.68;6.03;;;3.00;99.90;;;;;;1973308;72;21127;-73
2021/01/04 12:19:26;;;;;;;18.70;6.75;;;2.90;99.90;;;;;;1972320;72;21068;-72
2021/01/04 12:21:52;;;;;;;14.30;6.12;;;2.80;99.90;;;;;;1971635;72;21120;-73
2021/01/04 12:24:18;;;;;;;14.53;6.58;;;2.80;99.90;;;;;;1976961;72;21206;-71
2021/01/04 12:26:44;;;;;;;7.83;5.50;;;2.80;99.90;;;;;;1977439;72;21058;-71
2021/01/04 12:29:11;;;;;;;14.03;7.55;;;2.70;99.90;;;;;;1977173;72;21051;-71
2021/01/04 12:31:37;;;;;;;13.90;6.45;;;2.60;99.90;;;;;;1977118;72;21160;-74
2021/01/04 12:34:03;;;;;;;12.05;7.25;;;2.60;99.90;;;;;;1974382;72;21160;-72